sensor_id;sensor_type;location;lat;lon;timestamp;pressure;altitude;pressure_sealevel;temperature;humidity
8573;BME280;4324;42.012;24.872;2023-04-27T00:01:55;98351.97;;;13.35;53.50
8573;BME280;4324;42.012;24.872;2023-04-27T00:04:22;98354.41;;;13.37;53.69
8573;BME280;4324;42.012;24.872;2023-04-27T00:06:49;98379.16;;;13.37;54.28
8573;BME280;4324;42.012;24.872;2023-04-27T00:09:18;98342.00;;;13.16;54.21
8573;BME280;4324;42.012;24.872;2023-04-27T00:11:45;98371.34;;;13.29;54.02
8573;BME280;4324;42.012;24.872;2023-04-27T00:14:11;98385.88;;;13.33;54.12
8573;BME280;4324;42.012;24.872;2023-04-27T00:16:38;98397.56;;;13.32;54.45
8573;BME280;4324;42.012;24.872;2023-04-27T00:19:05;98392.41;;;13.30;54.56
8573;BME280;4324;42.012;24.872;2023-04-27T00:21:33;98388.72;;;13.25;54.32
8573;BME280;4324;42.012;24.872;2023-04-27T00:24:00;98400.59;;;13.29;54.73
8573;BME280;4324;42.012;24.872;2023-04-27T00:26:28;98404.22;;;13.21;55.02
8573;BME280;4324;42.012;24.872;2023-04-27T00:28:55;98386.13;;;13.03;54.98
8573;BME280;4324;42.012;24.872;2023-04-27T00:31:22;98402.28;;;13.08;55.00
8573;BME280;4324;42.012;24.872;2023-04-27T00:33:49;98399.41;;;13.03;55.12
8573;BME280;4324;42.012;24.872;2023-04-27T00:36:16;98417.25;;;13.10;54.82
8573;BME280;4324;42.012;24.872;2023-04-27T00:38:43;98402.97;;;12.82;54.94
8573;BME280;4324;42.012;24.872;2023-04-27T00:41:09;98421.97;;;12.79;55.24
8573;BME280;4324;42.012;24.872;2023-04-27T00:43:42;98434.28;;;12.87;55.11
8573;BME280;4324;42.012;24.872;2023-04-27T00:46:10;98439.28;;;12.69;56.23
8573;BME280;4324;42.012;24.872;2023-04-27T00:48:39;98443.22;;;12.51;56.42
8573;BME280;4324;42.012;24.872;2023-04-27T00:51:05;98447.88;;;12.49;57.20
8573;BME280;4324;42.012;24.872;2023-04-27T00:53:33;98455.22;;;12.47;57.07
8573;BME280;4324;42.012;24.872;2023-04-27T00:56:01;98464.00;;;12.48;56.84
8573;BME280;4324;42.012;24.872;2023-04-27T00:58:28;98456.81;;;12.42;56.81
8573;BME280;4324;42.012;24.872;2023-04-27T01:00:57;98469.47;;;12.40;56.63
8573;BME280;4324;42.012;24.872;2023-04-27T01:03:25;98474.72;;;12.33;56.79
8573;BME280;4324;42.012;24.872;2023-04-27T01:05:52;98483.25;;;12.28;57.04
8573;BME280;4324;42.012;24.872;2023-04-27T01:08:21;98473.72;;;12.13;57.60
8573;BME280;4324;42.012;24.872;2023-04-27T01:10:48;98481.53;;;12.21;57.26
8573;BME280;4324;42.012;24.872;2023-04-27T01:13:15;98466.13;;;12.09;57.14
8573;BME280;4324;42.012;24.872;2023-04-27T01:15:42;98479.50;;;12.23;57.47
8573;BME280;4324;42.012;24.872;2023-04-27T01:18:10;98467.38;;;12.14;57.75
8573;BME280;4324;42.012;24.872;2023-04-27T01:20:37;98482.34;;;12.21;57.80
8573;BME280;4324;42.012;24.872;2023-04-27T01:23:04;98457.00;;;11.97;58.51
8573;BME280;4324;42.012;24.872;2023-04-27T01:25:32;98493.16;;;12.20;57.47
8573;BME280;4324;42.012;24.872;2023-04-27T01:27:59;98482.53;;;12.20;57.41
8573;BME280;4324;42.012;24.872;2023-04-27T01:30:26;98393.97;;;11.63;57.87
8573;BME280;4324;42.012;24.872;2023-04-27T01:32:54;98480.91;;;12.19;57.48
8573;BME280;4324;42.012;24.872;2023-04-27T01:35:21;98472.38;;;12.02;57.58
8573;BME280;4324;42.012;24.872;2023-04-27T01:37:48;98494.72;;;12.14;57.80
8573;BME280;4324;42.012;24.872;2023-04-27T01:40:15;98500.66;;;12.16;58.01
8573;BME280;4324;42.012;24.872;2023-04-27T01:42:43;98507.00;;;12.15;58.03
8573;BME280;4324;42.012;24.872;2023-04-27T01:45:10;98514.13;;;12.15;57.99
8573;BME280;4324;42.012;24.872;2023-04-27T01:47:37;98508.38;;;12.11;58.38
8573;BME280;4324;42.012;24.872;2023-04-27T01:50:05;98507.19;;;12.14;58.53
8573;BME280;4324;42.012;24.872;2023-04-27T01:52:32;98509.47;;;12.17;58.20
8573;BME280;4324;42.012;24.872;2023-04-27T01:54:58;98508.81;;;12.15;58.45
8573;BME280;4324;42.012;24.872;2023-04-27T01:57:25;98508.09;;;12.21;58.18
8573;BME280;4324;42.012;24.872;2023-04-27T01:59:54;98484.25;;;12.06;58.51
8573;BME280;4324;42.012;24.872;2023-04-27T02:02:20;98520.72;;;12.19;58.48
8573;BME280;4324;42.012;24.872;2023-04-27T02:04:47;98524.81;;;12.21;58.10
8573;BME280;4324;42.012;24.872;2023-04-27T02:07:14;98514.00;;;12.23;57.80
8573;BME280;4324;42.012;24.872;2023-04-27T02:09:41;98499.41;;;12.12;57.90
8573;BME280;4324;42.012;24.872;2023-04-27T02:12:08;98530.31;;;12.20;58.31
8573;BME280;4324;42.012;24.872;2023-04-27T02:14:35;98517.81;;;12.14;58.31
8573;BME280;4324;42.012;24.872;2023-04-27T02:17:03;98469.75;;;11.87;58.29
8573;BME280;4324;42.012;24.872;2023-04-27T02:19:30;98515.16;;;12.14;58.31
8573;BME280;4324;42.012;24.872;2023-04-27T02:21:57;98516.97;;;12.13;58.39
8573;BME280;4324;42.012;24.872;2023-04-27T02:24:24;98514.34;;;12.13;58.43
8573;BME280;4324;42.012;24.872;2023-04-27T02:26:51;98518.81;;;12.13;58.24
8573;BME280;4324;42.012;24.872;2023-04-27T02:29:18;98522.47;;;12.11;58.56
8573;BME280;4324;42.012;24.872;2023-04-27T02:31:45;98514.13;;;12.15;58.06
8573;BME280;4324;42.012;24.872;2023-04-27T02:34:13;98518.25;;;12.17;57.94
8573;BME280;4324;42.012;24.872;2023-04-27T02:36:40;98498.50;;;12.05;57.94
8573;BME280;4324;42.012;24.872;2023-04-27T02:39:07;98516.25;;;12.04;58.12
8573;BME280;4324;42.012;24.872;2023-04-27T02:41:34;98537.41;;;12.13;58.03
8573;BME280;4324;42.012;24.872;2023-04-27T02:44:00;98532.13;;;12.19;57.79
8573;BME280;4324;42.012;24.872;2023-04-27T02:46:28;98467.28;;;11.71;57.68
8573;BME280;4324;42.012;24.872;2023-04-27T02:48:55;98546.22;;;12.20;57.60
8573;BME280;4324;42.012;24.872;2023-04-27T02:51:23;98543.97;;;12.17;57.78
8573;BME280;4324;42.012;24.872;2023-04-27T02:53:51;98545.63;;;12.18;57.79
8573;BME280;4324;42.012;24.872;2023-04-27T02:56:18;98536.00;;;12.17;57.87
8573;BME280;4324;42.012;24.872;2023-04-27T02:58:45;98543.97;;;12.17;57.98
8573;BME280;4324;42.012;24.872;2023-04-27T03:01:13;98548.63;;;12.15;57.99
8573;BME280;4324;42.012;24.872;2023-04-27T03:03:44;98548.44;;;12.16;58.05
8573;BME280;4324;42.012;24.872;2023-04-27T03:06:11;98535.72;;;12.11;58.05
8573;BME280;4324;42.012;24.872;2023-04-27T03:08:39;98527.97;;;12.10;57.84
8573;BME280;4324;42.012;24.872;2023-04-27T03:11:06;98546.13;;;12.28;57.80
8573;BME280;4324;42.012;24.872;2023-04-27T03:13:34;98551.44;;;12.28;57.79
8573;BME280;4324;42.012;24.872;2023-04-27T03:16:08;98548.50;;;12.23;57.95
8573;BME280;4324;42.012;24.872;2023-04-27T03:18:35;98545.94;;;12.29;57.61
8573;BME280;4324;42.012;24.872;2023-04-27T03:21:06;98524.94;;;12.13;57.52
8573;BME280;4324;42.012;24.872;2023-04-27T03:23:33;98557.75;;;12.27;57.66
8573;BME280;4324;42.012;24.872;2023-04-27T03:26:06;98552.00;;;12.23;57.78
8573;BME280;4324;42.012;24.872;2023-04-27T03:28:33;98552.44;;;12.27;57.70
8573;BME280;4324;42.012;24.872;2023-04-27T03:31:00;98561.28;;;12.34;57.62
8573;BME280;4324;42.012;24.872;2023-04-27T03:33:30;98564.75;;;12.34;57.72
8573;BME280;4324;42.012;24.872;2023-04-27T03:35:56;98570.28;;;12.33;57.49
8573;BME280;4324;42.012;24.872;2023-04-27T03:38:24;98564.53;;;12.29;57.46
8573;BME280;4324;42.012;24.872;2023-04-27T03:40:51;98570.28;;;12.33;57.29
8573;BME280;4324;42.012;24.872;2023-04-27T03:43:20;98556.47;;;12.23;56.72
8573;BME280;4324;42.012;24.872;2023-04-27T03:45:47;98579.25;;;12.32;56.93
8573;BME280;4324;42.012;24.872;2023-04-27T03:48:15;98577.59;;;12.31;56.93
8573;BME280;4324;42.012;24.872;2023-04-27T03:50:42;98569.38;;;12.26;57.04
8573;BME280;4324;42.012;24.872;2023-04-27T03:53:09;98584.19;;;12.35;57.10
8573;BME280;4324;42.012;24.872;2023-04-27T03:55:37;98587.09;;;12.40;57.01
8573;BME280;4324;42.012;24.872;2023-04-27T03:58:04;98582.81;;;12.39;57.15
8573;BME280;4324;42.012;24.872;2023-04-27T04:00:32;98588.28;;;12.38;57.15
8573;BME280;4324;42.012;24.872;2023-04-27T04:02:59;98587.84;;;12.34;57.16
8573;BME280;4324;42.012;24.872;2023-04-27T04:05:26;98536.88;;;12.02;56.93
8573;BME280;4324;42.012;24.872;2023-04-27T04:07:54;98596.09;;;12.39;57.03
8573;BME280;4324;42.012;24.872;2023-04-27T04:10:21;98564.88;;;12.26;57.13
8573;BME280;4324;42.012;24.872;2023-04-27T04:12:48;98595.31;;;12.45;56.96
8573;BME280;4324;42.012;24.872;2023-04-27T04:15:16;98522.06;;;11.93;56.75
8573;BME280;4324;42.012;24.872;2023-04-27T04:17:45;98591.16;;;12.36;56.71
8573;BME280;4324;42.012;24.872;2023-04-27T04:20:13;98566.66;;;12.19;56.47
8573;BME280;4324;42.012;24.872;2023-04-27T04:22:41;98612.06;;;12.46;56.74
8573;BME280;4324;42.012;24.872;2023-04-27T04:25:08;98601.28;;;12.47;56.53
8573;BME280;4324;42.012;24.872;2023-04-27T04:27:35;98611.78;;;12.55;56.37
8573;BME280;4324;42.012;24.872;2023-04-27T04:30:03;98608.50;;;12.53;56.30
8573;BME280;4324;42.012;24.872;2023-04-27T04:32:30;98618.63;;;12.65;56.31
8573;BME280;4324;42.012;24.872;2023-04-27T04:34:59;98614.38;;;12.70;56.45
8573;BME280;4324;42.012;24.872;2023-04-27T04:37:27;98627.59;;;12.85;56.90
8573;BME280;4324;42.012;24.872;2023-04-27T04:39:53;98622.16;;;12.93;56.51
8573;BME280;4324;42.012;24.872;2023-04-27T04:42:20;98623.63;;;12.96;56.29
8573;BME280;4324;42.012;24.872;2023-04-27T04:44:47;98623.41;;;12.97;56.14
8573;BME280;4324;42.012;24.872;2023-04-27T04:47:14;98628.34;;;13.00;55.83
8573;BME280;4324;42.012;24.872;2023-04-27T04:49:42;98626.97;;;13.04;55.83
8573;BME280;4324;42.012;24.872;2023-04-27T04:52:10;98625.78;;;13.07;55.86
8573;BME280;4324;42.012;24.872;2023-04-27T04:54:37;98592.31;;;12.91;55.64
8573;BME280;4324;42.012;24.872;2023-04-27T04:57:04;98628.63;;;13.05;55.79
8573;BME280;4324;42.012;24.872;2023-04-27T04:59:32;98632.72;;;13.08;55.52
8573;BME280;4324;42.012;24.872;2023-04-27T05:01:59;98632.53;;;13.10;55.53
8573;BME280;4324;42.012;24.872;2023-04-27T05:04:26;98641.13;;;13.12;55.41
8573;BME280;4324;42.012;24.872;2023-04-27T05:06:53;98650.13;;;13.11;55.25
8573;BME280;4324;42.012;24.872;2023-04-27T05:09:21;98646.22;;;13.06;55.34
8573;BME280;4324;42.012;24.872;2023-04-27T05:11:48;98578.38;;;12.68;55.31
8573;BME280;4324;42.012;24.872;2023-04-27T05:14:15;98635.97;;;13.03;55.36
8573;BME280;4324;42.012;24.872;2023-04-27T05:16:42;98587.00;;;12.70;55.06
8573;BME280;4324;42.012;24.872;2023-04-27T05:19:09;98648.59;;;13.01;54.72
8573;BME280;4324;42.012;24.872;2023-04-27T05:21:36;98656.47;;;13.10;54.72
8573;BME280;4324;42.012;24.872;2023-04-27T05:24:03;98649.03;;;13.05;54.80
8573;BME280;4324;42.012;24.872;2023-04-27T05:26:31;98654.75;;;13.02;54.57
8573;BME280;4324;42.012;24.872;2023-04-27T05:28:58;98649.38;;;12.95;54.91
8573;BME280;4324;42.012;24.872;2023-04-27T05:31:25;98664.19;;;13.04;54.72
8573;BME280;4324;42.012;24.872;2023-04-27T05:33:52;98663.69;;;12.94;54.68
8573;BME280;4324;42.012;24.872;2023-04-27T05:36:19;98655.31;;;12.97;54.69
8573;BME280;4324;42.012;24.872;2023-04-27T05:38:46;98672.53;;;13.01;54.22
8573;BME280;4324;42.012;24.872;2023-04-27T05:41:16;98672.78;;;13.06;54.30
8573;BME280;4324;42.012;24.872;2023-04-27T05:43:44;98596.09;;;12.60;54.25
8573;BME280;4324;42.012;24.872;2023-04-27T05:46:12;98634.19;;;12.89;54.32
8573;BME280;4324;42.012;24.872;2023-04-27T05:48:39;98668.81;;;13.17;54.07
8573;BME280;4324;42.012;24.872;2023-04-27T05:51:06;98655.06;;;13.14;54.07
8573;BME280;4324;42.012;24.872;2023-04-27T05:53:33;98678.59;;;13.31;54.00
8573;BME280;4324;42.012;24.872;2023-04-27T05:56:00;98635.25;;;13.16;53.98
8573;BME280;4324;42.012;24.872;2023-04-27T05:58:28;98677.78;;;13.59;54.07
8573;BME280;4324;42.012;24.872;2023-04-27T06:00:57;98660.75;;;13.53;53.11
8573;BME280;4324;42.012;24.872;2023-04-27T06:03:24;98691.50;;;13.63;53.16
8573;BME280;4324;42.012;24.872;2023-04-27T06:05:53;98690.25;;;13.59;52.67
8573;BME280;4324;42.012;24.872;2023-04-27T06:08:20;98700.50;;;13.62;52.58
8573;BME280;4324;42.012;24.872;2023-04-27T06:10:47;98685.97;;;13.58;52.49
8573;BME280;4324;42.012;24.872;2023-04-27T06:13:15;98695.56;;;13.59;52.47
8573;BME280;4324;42.012;24.872;2023-04-27T06:15:42;98680.56;;;13.51;52.38
8573;BME280;4324;42.012;24.872;2023-04-27T06:18:11;98700.31;;;13.63;52.24
8573;BME280;4324;42.012;24.872;2023-04-27T06:20:38;98645.06;;;13.37;52.51
8573;BME280;4324;42.012;24.872;2023-04-27T06:23:06;98680.88;;;13.63;52.71
8573;BME280;4324;42.012;24.872;2023-04-27T06:25:33;98638.97;;;13.22;52.21
8573;BME280;4324;42.012;24.872;2023-04-27T06:28:03;98695.19;;;13.62;52.41
8573;BME280;4324;42.012;24.872;2023-04-27T06:30:30;98697.41;;;13.58;52.06
8573;BME280;4324;42.012;24.872;2023-04-27T06:32:57;98694.16;;;13.63;52.15
8573;BME280;4324;42.012;24.872;2023-04-27T06:35:25;98698.31;;;13.72;52.04
8573;BME280;4324;42.012;24.872;2023-04-27T06:37:52;98710.28;;;13.83;51.81
8573;BME280;4324;42.012;24.872;2023-04-27T06:40:23;98706.25;;;13.93;51.62
8573;BME280;4324;42.012;24.872;2023-04-27T06:42:51;98686.56;;;13.88;51.21
8573;BME280;4324;42.012;24.872;2023-04-27T06:45:18;98711.72;;;14.13;51.12
8573;BME280;4324;42.012;24.872;2023-04-27T06:47:45;98687.34;;;14.16;51.34
8573;BME280;4324;42.012;24.872;2023-04-27T06:50:13;98698.72;;;14.38;50.67
8573;BME280;4324;42.012;24.872;2023-04-27T06:52:41;98708.69;;;14.58;51.11
8573;BME280;4324;42.012;24.872;2023-04-27T06:55:08;98713.22;;;14.64;50.00
8573;BME280;4324;42.012;24.872;2023-04-27T06:57:35;98683.69;;;14.59;50.78
8573;BME280;4324;42.012;24.872;2023-04-27T07:00:06;98696.50;;;14.83;50.20
8573;BME280;4324;42.012;24.872;2023-04-27T07:02:33;98717.00;;;14.89;49.63
8573;BME280;4324;42.012;24.872;2023-04-27T07:05:00;98719.84;;;14.81;49.31
8573;BME280;4324;42.012;24.872;2023-04-27T07:07:26;98700.56;;;14.79;49.18
8573;BME280;4324;42.012;24.872;2023-04-27T07:09:55;98711.28;;;14.92;48.99
8573;BME280;4324;42.012;24.872;2023-04-27T07:12:22;98716.22;;;15.09;48.91
8573;BME280;4324;42.012;24.872;2023-04-27T07:14:51;98681.28;;;14.77;48.84
8573;BME280;4324;42.012;24.872;2023-04-27T07:17:18;98716.81;;;15.04;48.17
8573;BME280;4324;42.012;24.872;2023-04-27T07:19:45;98723.16;;;14.96;48.70
8573;BME280;4324;42.012;24.872;2023-04-27T07:22:12;98704.28;;;14.85;48.02
8573;BME280;4324;42.012;24.872;2023-04-27T07:24:40;98723.34;;;14.88;48.20
8573;BME280;4324;42.012;24.872;2023-04-27T07:27:08;98725.97;;;14.75;48.06
8573;BME280;4324;42.012;24.872;2023-04-27T07:29:35;98721.28;;;14.77;47.99
8573;BME280;4324;42.012;24.872;2023-04-27T07:32:04;98687.38;;;14.58;48.03
8573;BME280;4324;42.012;24.872;2023-04-27T07:34:31;98709.56;;;14.71;48.05
8573;BME280;4324;42.012;24.872;2023-04-27T07:36:59;98675.28;;;14.55;47.74
8573;BME280;4324;42.012;24.872;2023-04-27T07:39:25;98728.47;;;14.83;47.69
8573;BME280;4324;42.012;24.872;2023-04-27T07:41:53;98708.13;;;14.69;47.59
8573;BME280;4324;42.012;24.872;2023-04-27T07:44:21;98724.81;;;14.91;47.44
8573;BME280;4324;42.012;24.872;2023-04-27T07:46:48;98715.81;;;14.98;47.61
8573;BME280;4324;42.012;24.872;2023-04-27T07:49:14;98724.00;;;15.04;47.07
8573;BME280;4324;42.012;24.872;2023-04-27T07:51:41;98716.66;;;15.06;46.84
8573;BME280;4324;42.012;24.872;2023-04-27T07:54:08;98710.47;;;14.98;47.13
8573;BME280;4324;42.012;24.872;2023-04-27T07:56:35;98697.53;;;14.95;46.88
8573;BME280;4324;42.012;24.872;2023-04-27T07:59:02;98713.75;;;15.07;46.75
8573;BME280;4324;42.012;24.872;2023-04-27T08:01:30;98724.44;;;15.14;46.50
8573;BME280;4324;42.012;24.872;2023-04-27T08:03:57;98715.63;;;15.07;46.49
8573;BME280;4324;42.012;24.872;2023-04-27T08:06:24;98728.16;;;15.26;46.14
8573;BME280;4324;42.012;24.872;2023-04-27T08:08:52;98722.41;;;15.22;45.84
8573;BME280;4324;42.012;24.872;2023-04-27T08:11:22;98725.69;;;15.24;45.82
8573;BME280;4324;42.012;24.872;2023-04-27T08:13:49;98718.53;;;15.25;45.95
8573;BME280;4324;42.012;24.872;2023-04-27T08:16:16;98699.25;;;15.43;45.73
8573;BME280;4324;42.012;24.872;2023-04-27T08:18:44;98717.09;;;15.56;45.28
8573;BME280;4324;42.012;24.872;2023-04-27T08:21:11;98703.34;;;15.45;45.45
8573;BME280;4324;42.012;24.872;2023-04-27T08:23:38;98710.94;;;15.48;45.36
8573;BME280;4324;42.012;24.872;2023-04-27T08:26:05;98709.91;;;15.56;45.14
8573;BME280;4324;42.012;24.872;2023-04-27T08:28:32;98699.06;;;15.58;45.43
8573;BME280;4324;42.012;24.872;2023-04-27T08:30:59;98698.66;;;15.67;45.29
8573;BME280;4324;42.012;24.872;2023-04-27T08:33:26;98658.41;;;15.49;45.22
8573;BME280;4324;42.012;24.872;2023-04-27T08:35:54;98707.06;;;15.78;44.73
8573;BME280;4324;42.012;24.872;2023-04-27T08:38:21;98707.69;;;15.73;44.37
8573;BME280;4324;42.012;24.872;2023-04-27T08:40:48;98707.69;;;15.80;44.53
8573;BME280;4324;42.012;24.872;2023-04-27T08:43:15;98672.16;;;15.53;44.67
8573;BME280;4324;42.012;24.872;2023-04-27T08:45:47;98645.28;;;15.54;43.93
8573;BME280;4324;42.012;24.872;2023-04-27T08:48:14;98698.22;;;15.97;44.28
8573;BME280;4324;42.012;24.872;2023-04-27T08:50:43;98673.13;;;16.05;44.53
8573;BME280;4324;42.012;24.872;2023-04-27T08:53:17;98662.66;;;16.10;44.53
8573;BME280;4324;42.012;24.872;2023-04-27T08:55:45;98669.16;;;16.34;44.22
8573;BME280;4324;42.012;24.872;2023-04-27T08:58:12;98648.03;;;16.19;43.95
8573;BME280;4324;42.012;24.872;2023-04-27T09:00:40;98670.78;;;16.35;43.82
8573;BME280;4324;42.012;24.872;2023-04-27T09:03:16;98673.00;;;16.44;43.91
8573;BME280;4324;42.012;24.872;2023-04-27T09:05:45;98673.44;;;16.41;43.26
8573;BME280;4324;42.012;24.872;2023-04-27T09:08:12;98653.94;;;16.34;43.13
8573;BME280;4324;42.012;24.872;2023-04-27T09:10:44;98596.97;;;15.95;42.47
8573;BME280;4324;42.012;24.872;2023-04-27T09:13:12;98632.47;;;16.09;42.09
8573;BME280;4324;42.012;24.872;2023-04-27T09:15:43;98671.19;;;16.38;42.54
8573;BME280;4324;42.012;24.872;2023-04-27T09:18:15;98630.53;;;16.23;42.58
8573;BME280;4324;42.012;24.872;2023-04-27T09:20:43;98643.84;;;16.43;42.90
8573;BME280;4324;42.012;24.872;2023-04-27T09:23:10;98679.06;;;16.78;42.69
8573;BME280;4324;42.012;24.872;2023-04-27T09:25:38;98666.69;;;16.84;41.93
8573;BME280;4324;42.012;24.872;2023-04-27T09:28:06;98671.19;;;16.83;41.66
8573;BME280;4324;42.012;24.872;2023-04-27T09:30:33;98587.94;;;16.41;41.69
8573;BME280;4324;42.012;24.872;2023-04-27T09:33:02;98617.78;;;16.77;42.10
8573;BME280;4324;42.012;24.872;2023-04-27T09:35:30;98668.50;;;17.22;41.79
8573;BME280;4324;42.012;24.872;2023-04-27T09:37:59;98634.81;;;17.14;40.54
8573;BME280;4324;42.012;24.872;2023-04-27T09:40:28;98648.63;;;17.11;40.36
8573;BME280;4324;42.012;24.872;2023-04-27T09:42:57;98660.06;;;17.25;40.59
8573;BME280;4324;42.012;24.872;2023-04-27T09:45:26;98641.72;;;17.28;40.72
8573;BME280;4324;42.012;24.872;2023-04-27T09:47:53;98650.84;;;17.39;40.92
8573;BME280;4324;42.012;24.872;2023-04-27T09:50:21;98626.78;;;17.39;40.72
8573;BME280;4324;42.012;24.872;2023-04-27T09:52:48;98635.13;;;17.49;40.58
8573;BME280;4324;42.012;24.872;2023-04-27T09:55:17;98628.81;;;17.44;39.93
8573;BME280;4324;42.012;24.872;2023-04-27T09:57:52;98643.09;;;17.56;40.16
8573;BME280;4324;42.012;24.872;2023-04-27T10:00:34;98660.81;;;17.57;40.02
8573;BME280;4324;42.012;24.872;2023-04-27T10:03:15;98633.72;;;17.47;40.09
8573;BME280;4324;42.012;24.872;2023-04-27T10:09:02;98626.41;;;17.35;39.73
8573;BME280;4324;42.012;24.872;2023-04-27T10:11:37;98633.06;;;17.26;40.01
8573;BME280;4324;42.012;24.872;2023-04-27T10:14:06;98642.09;;;17.32;40.00
8573;BME280;4324;42.012;24.872;2023-04-27T10:16:48;98643.34;;;17.29;40.05
8573;BME280;4324;42.012;24.872;2023-04-27T10:19:15;98638.41;;;17.26;40.21
8573;BME280;4324;42.012;24.872;2023-04-27T10:21:53;98638.47;;;17.20;40.23
8573;BME280;4324;42.012;24.872;2023-04-27T10:24:32;98653.94;;;17.17;40.68
8573;BME280;4324;42.012;24.872;2023-04-27T10:27:01;98630.78;;;16.98;40.59
8573;BME280;4324;42.012;24.872;2023-04-27T10:29:37;98648.69;;;17.29;40.64
8573;BME280;4324;42.012;24.872;2023-04-27T10:32:09;98635.38;;;17.48;40.74
8573;BME280;4324;42.012;24.872;2023-04-27T10:34:36;98645.81;;;17.74;40.36
8573;BME280;4324;42.012;24.872;2023-04-27T10:37:04;98641.94;;;17.95;39.85
8573;BME280;4324;42.012;24.872;2023-04-27T10:39:34;98632.91;;;17.89;39.53
8573;BME280;4324;42.012;24.872;2023-04-27T10:42:02;98664.13;;;18.02;39.21
8573;BME280;4324;42.012;24.872;2023-04-27T10:44:30;98627.06;;;17.74;39.00
8573;BME280;4324;42.012;24.872;2023-04-27T10:46:59;98630.03;;;17.91;39.17
8573;BME280;4324;42.012;24.872;2023-04-27T10:49:28;98639.78;;;18.04;38.31
8573;BME280;4324;42.012;24.872;2023-04-27T10:51:57;98642.47;;;18.04;38.26
8573;BME280;4324;42.012;24.872;2023-04-27T10:54:26;98647.81;;;18.22;38.76
8573;BME280;4324;42.012;24.872;2023-04-27T10:57:00;98656.28;;;18.37;38.70
8573;BME280;4324;42.012;24.872;2023-04-27T10:59:28;98664.34;;;18.37;38.32
8573;BME280;4324;42.012;24.872;2023-04-27T11:01:55;98669.13;;;18.35;38.34
8573;BME280;4324;42.012;24.872;2023-04-27T11:04:22;98648.63;;;18.23;38.16
8573;BME280;4324;42.012;24.872;2023-04-27T11:06:51;98645.56;;;18.37;37.79
8573;BME280;4324;42.012;24.872;2023-04-27T11:09:26;98642.44;;;18.41;37.22
8573;BME280;4324;42.012;24.872;2023-04-27T11:11:53;98655.66;;;18.54;37.39
8573;BME280;4324;42.012;24.872;2023-04-27T11:14:20;98604.94;;;18.22;37.03
8573;BME280;4324;42.012;24.872;2023-04-27T11:16:48;98606.28;;;18.13;37.40
8573;BME280;4324;42.012;24.872;2023-04-27T11:19:15;98641.03;;;18.38;37.86
8573;BME280;4324;42.012;24.872;2023-04-27T11:21:42;98653.09;;;18.29;38.04
8573;BME280;4324;42.012;24.872;2023-04-27T11:24:10;98657.34;;;18.18;37.96
8573;BME280;4324;42.012;24.872;2023-04-27T11:26:37;98675.22;;;18.06;38.05
8573;BME280;4324;42.012;24.872;2023-04-27T11:29:05;98667.25;;;17.74;38.42
8573;BME280;4324;42.012;24.872;2023-04-27T11:31:41;98653.44;;;17.52;38.78
8573;BME280;4324;42.012;24.872;2023-04-27T11:34:15;98655.72;;;17.49;39.02
8573;BME280;4324;42.012;24.872;2023-04-27T11:36:42;98673.75;;;17.60;39.17
8573;BME280;4324;42.012;24.872;2023-04-27T11:39:16;98680.53;;;17.62;39.09
8573;BME280;4324;42.012;24.872;2023-04-27T11:41:46;98657.81;;;17.47;38.95
8573;BME280;4324;42.012;24.872;2023-04-27T11:44:15;98676.44;;;17.60;38.73
8573;BME280;4324;42.012;24.872;2023-04-27T11:46:44;98682.97;;;17.64;39.23
8573;BME280;4324;42.012;24.872;2023-04-27T11:49:12;98663.03;;;17.60;38.32
8573;BME280;4324;42.012;24.872;2023-04-27T11:51:39;98665.13;;;17.58;38.60
8573;BME280;4324;42.012;24.872;2023-04-27T11:54:09;98673.94;;;17.65;38.01
8573;BME280;4324;42.012;24.872;2023-04-27T11:56:40;98679.44;;;17.70;38.22
8573;BME280;4324;42.012;24.872;2023-04-27T11:59:17;98670.28;;;17.84;38.42
8573;BME280;4324;42.012;24.872;2023-04-27T12:01:44;98689.94;;;17.97;38.27
8573;BME280;4324;42.012;24.872;2023-04-27T12:04:12;98676.41;;;18.10;38.38
8573;BME280;4324;42.012;24.872;2023-04-27T12:06:39;98679.97;;;18.22;38.23
8573;BME280;4324;42.012;24.872;2023-04-27T12:09:06;98679.91;;;18.29;38.12
8573;BME280;4324;42.012;24.872;2023-04-27T12:11:33;98668.81;;;18.25;37.97
8573;BME280;4324;42.012;24.872;2023-04-27T12:14:01;98673.34;;;18.25;37.49
8573;BME280;4324;42.012;24.872;2023-04-27T12:16:28;98669.84;;;18.06;37.27
8573;BME280;4324;42.012;24.872;2023-04-27T12:18:55;98676.25;;;18.05;37.24
8573;BME280;4324;42.012;24.872;2023-04-27T12:21:22;98679.66;;;18.12;37.50
8573;BME280;4324;42.012;24.872;2023-04-27T12:23:49;98678.72;;;18.25;37.36
8573;BME280;4324;42.012;24.872;2023-04-27T12:26:16;98672.81;;;18.34;36.81
8573;BME280;4324;42.012;24.872;2023-04-27T12:28:43;98668.88;;;18.37;36.89
8573;BME280;4324;42.012;24.872;2023-04-27T12:31:14;98662.09;;;18.34;36.96
8573;BME280;4324;42.012;24.872;2023-04-27T12:33:43;98658.28;;;18.42;36.60
8573;BME280;4324;42.012;24.872;2023-04-27T12:36:10;98664.75;;;18.53;36.72
8573;BME280;4324;42.012;24.872;2023-04-27T12:38:37;98669.69;;;18.56;36.71
8573;BME280;4324;42.012;24.872;2023-04-27T12:41:03;98669.06;;;18.72;36.91
8573;BME280;4324;42.012;24.872;2023-04-27T12:43:30;98568.59;;;18.26;36.79
8573;BME280;4324;42.012;24.872;2023-04-27T12:45:58;98599.69;;;18.46;36.75
8573;BME280;4324;42.012;24.872;2023-04-27T12:48:26;98660.41;;;18.70;36.71
8573;BME280;4324;42.012;24.872;2023-04-27T12:50:54;98618.53;;;18.39;36.75
8573;BME280;4324;42.012;24.872;2023-04-27T12:53:22;98646.94;;;18.28;36.55
8573;BME280;4324;42.012;24.872;2023-04-27T12:55:49;98624.91;;;18.08;36.59
8573;BME280;4324;42.012;24.872;2023-04-27T12:58:18;98628.75;;;17.94;36.20
8573;BME280;4324;42.012;24.872;2023-04-27T13:00:45;98613.66;;;17.81;36.43
8573;BME280;4324;42.012;24.872;2023-04-27T13:03:12;98664.94;;;18.03;36.38
8573;BME280;4324;42.012;24.872;2023-04-27T13:05:41;98645.88;;;18.11;36.38
8573;BME280;4324;42.012;24.872;2023-04-27T13:08:08;98658.53;;;18.41;36.15
8573;BME280;4324;42.012;24.872;2023-04-27T13:10:36;98653.91;;;18.48;35.96
8573;BME280;4324;42.012;24.872;2023-04-27T13:13:03;98639.31;;;18.44;35.71
8573;BME280;4324;42.012;24.872;2023-04-27T13:15:31;98646.22;;;18.51;36.04
8573;BME280;4324;42.012;24.872;2023-04-27T13:17:58;98635.81;;;18.43;36.25